createdAt,value
2019-05-30T00:01:56.641Z,10.30
2019-05-30T00:04:23.940Z,10.50
2019-05-30T00:06:51.258Z,10.25
2019-05-30T00:09:18.565Z,11.10
2019-05-30T00:11:45.875Z,9.68
2019-05-30T00:14:13.166Z,10.90
2019-05-30T00:16:40.466Z,11.55
2019-05-30T00:19:07.778Z,10.68
2019-05-30T00:21:35.092Z,12.05
2019-05-30T00:24:02.389Z,12.28
2019-05-30T00:26:29.702Z,12.70
2019-05-30T00:28:58.185Z,12.40
2019-05-30T00:31:25.632Z,12.95
2019-05-30T00:33:52.927Z,13.10
2019-05-30T00:36:20.259Z,13.78
2019-05-30T00:38:47.544Z,13.58
2019-05-30T00:41:14.834Z,15.03
2019-05-30T00:43:42.123Z,13.50
2019-05-30T00:46:09.453Z,13.08
2019-05-30T00:48:36.759Z,11.95
2019-05-30T00:51:04.645Z,12.07
2019-05-30T00:53:32.090Z,11.10
2019-05-30T00:56:01.362Z,11.10
2019-05-30T00:58:28.332Z,10.68
2019-05-30T01:00:56.771Z,11.03
2019-05-30T01:03:24.117Z,10.28
2019-05-30T01:05:51.435Z,10.08
2019-05-30T01:08:18.718Z,9.93
2019-05-30T01:10:46.016Z,12.43
2019-05-30T01:13:13.333Z,12.85
2019-05-30T01:15:40.703Z,13.22
2019-05-30T01:18:07.990Z,12.03
2019-05-30T01:20:35.312Z,12.00
2019-05-30T01:23:03.290Z,13.80
2019-05-30T01:25:30.647Z,15.50
2019-05-30T01:27:57.906Z,12.73
2019-05-30T01:30:25.207Z,12.47
2019-05-30T01:32:52.563Z,12.33
2019-05-30T01:35:19.856Z,11.68
2019-05-30T01:37:47.350Z,11.78
2019-05-30T01:40:14.643Z,13.22
2019-05-30T01:42:41.980Z,12.15
2019-05-30T01:45:09.740Z,12.60
2019-05-30T01:47:37.047Z,12.18
2019-05-30T01:50:08.722Z,12.53
2019-05-30T01:52:36.220Z,11.53
2019-05-30T01:55:04.724Z,11.53
2019-05-30T01:57:31.990Z,12.58
2019-05-30T02:00:00.684Z,12.50
2019-05-30T02:02:28.006Z,12.68
2019-05-30T02:04:55.302Z,10.98
2019-05-30T02:07:22.619Z,10.50
2019-05-30T02:09:49.934Z,12.25
2019-05-30T02:12:17.230Z,12.13
2019-05-30T02:14:44.555Z,11.70
2019-05-30T02:17:11.847Z,12.70
2019-05-30T02:19:39.147Z,13.30
2019-05-30T02:22:06.474Z,11.80
2019-05-30T02:24:33.774Z,12.20
2019-05-30T02:27:02.204Z,12.40
2019-05-30T02:29:29.582Z,12.18
2019-05-30T02:31:56.878Z,14.10
2019-05-30T02:34:24.177Z,12.50
2019-05-30T02:36:51.494Z,14.85
2019-05-30T02:39:18.787Z,14.10
2019-05-30T02:41:46.110Z,13.62
2019-05-30T02:44:13.407Z,15.78
2019-05-30T02:46:40.707Z,16.82
2019-05-30T02:49:10.857Z,14.95
2019-05-30T02:51:37.805Z,15.35
2019-05-30T02:54:07.024Z,15.48
2019-05-30T02:56:39.245Z,14.28
2019-05-30T02:59:09.193Z,15.40
2019-05-30T03:01:58.362Z,14.28
2019-05-30T03:04:08.711Z,16.00
2019-05-30T03:06:36.697Z,14.38
2019-05-30T03:09:06.827Z,14.05
2019-05-30T03:11:34.937Z,14.40
2019-05-30T03:14:04.254Z,14.95
2019-05-30T03:16:31.150Z,17.20
2019-05-30T03:18:58.466Z,14.63
2019-05-30T03:21:25.792Z,14.40
2019-05-30T03:23:53.077Z,17.35
2019-05-30T03:26:20.402Z,15.95
2019-05-30T03:28:47.715Z,13.62
2019-05-30T03:31:27.325Z,14.10
2019-05-30T03:33:44.274Z,13.70
2019-05-30T03:36:26.433Z,15.80
2019-05-30T03:38:40.462Z,14.87
2019-05-30T03:41:11.562Z,12.33
2019-05-30T03:43:37.235Z,11.85
2019-05-30T03:46:06.102Z,10.82
2019-05-30T03:48:34.072Z,12.05
2019-05-30T03:51:01.458Z,11.25
2019-05-30T03:53:28.709Z,11.33
2019-05-30T03:55:57.691Z,13.95
2019-05-30T03:58:29.440Z,15.08
2019-05-30T04:00:58.387Z,15.85
2019-05-30T04:03:38.892Z,16.10
2019-05-30T04:06:10.190Z,12.90
2019-05-30T04:08:37.121Z,13.20
2019-05-30T04:11:05.193Z,12.78
2019-05-30T04:13:33.849Z,12.40
2019-05-30T04:16:01.170Z,21.95
2019-05-30T04:18:28.562Z,13.35
2019-05-30T04:20:55.849Z,13.60
2019-05-30T04:23:23.328Z,13.38
2019-05-30T04:25:52.103Z,12.13
2019-05-30T04:28:19.434Z,16.30
2019-05-30T04:30:46.762Z,12.75
2019-05-30T04:33:26.129Z,12.05
2019-05-30T04:35:43.568Z,12.00
2019-05-30T04:38:12.439Z,10.70
2019-05-30T04:40:40.052Z,10.60
2019-05-30T04:43:07.348Z,10.35
2019-05-30T04:45:35.070Z,10.20
2019-05-30T04:48:02.392Z,9.78
2019-05-30T04:50:29.703Z,9.65
2019-05-30T04:52:56.998Z,8.30
2019-05-30T04:55:24.287Z,9.23
2019-05-30T04:57:51.604Z,8.05
2019-05-30T05:00:20.023Z,6.87
2019-05-30T05:02:48.576Z,6.62
2019-05-30T05:05:20.856Z,9.13
2019-05-30T05:07:44.820Z,8.25
2019-05-30T05:10:12.178Z,8.53
2019-05-30T05:12:39.408Z,7.47
2019-05-30T05:15:06.721Z,7.60
2019-05-30T05:17:33.998Z,7.50
2019-05-30T05:20:01.314Z,8.13
2019-05-30T05:22:28.640Z,7.95
2019-05-30T05:24:55.946Z,8.20
2019-05-30T05:27:23.938Z,8.33
2019-05-30T05:29:51.433Z,10.58
2019-05-30T05:32:18.729Z,9.00
2019-05-30T05:34:46.041Z,9.83
2019-05-30T05:37:13.334Z,10.30
2019-05-30T05:39:40.626Z,11.55
2019-05-30T05:42:07.946Z,10.93
2019-05-30T05:44:35.251Z,11.28
2019-05-30T05:47:02.568Z,10.60
2019-05-30T05:49:29.858Z,10.90
2019-05-30T05:51:57.180Z,11.25
2019-05-30T05:54:25.045Z,12.00
2019-05-30T05:56:52.384Z,12.20
2019-05-30T05:59:20.880Z,10.98
2019-05-30T06:01:48.306Z,11.90
2019-05-30T06:04:15.599Z,13.30
2019-05-30T06:06:42.923Z,12.88
2019-05-30T06:09:10.213Z,12.25
2019-05-30T06:11:37.510Z,13.15
2019-05-30T06:14:04.821Z,11.83
2019-05-30T06:16:32.118Z,12.53
2019-05-30T06:18:59.438Z,10.50
2019-05-30T06:21:27.563Z,9.80
2019-05-30T06:23:54.827Z,10.75
2019-05-30T06:26:22.457Z,10.98
2019-05-30T06:28:49.841Z,11.05
2019-05-30T06:31:18.289Z,10.55
2019-05-30T06:33:45.657Z,11.15
2019-05-30T06:36:12.960Z,10.58
2019-05-30T06:38:40.241Z,9.18
2019-05-30T06:41:07.558Z,8.70
2019-05-30T06:43:34.849Z,8.25
2019-05-30T06:46:02.130Z,8.63
2019-05-30T06:48:30.737Z,9.73
2019-05-30T06:50:58.250Z,8.33
2019-05-30T06:53:25.541Z,9.00
2019-05-30T06:55:52.874Z,11.00
2019-05-30T06:58:36.189Z,8.00
2019-05-30T07:00:49.105Z,7.22
2019-05-30T07:03:16.501Z,7.42
2019-05-30T07:05:44.120Z,8.90
2019-05-30T07:08:11.714Z,6.70
2019-05-30T07:10:38.998Z,10.48
2019-05-30T07:13:06.301Z,8.33
2019-05-30T07:15:34.374Z,7.33
2019-05-30T07:18:01.843Z,8.68
2019-05-30T07:20:29.676Z,8.20
2019-05-30T07:22:57.161Z,7.60
2019-05-30T07:25:25.614Z,9.23
2019-05-30T07:27:52.949Z,8.63
2019-05-30T07:30:20.220Z,8.55
2019-05-30T07:32:47.513Z,8.53
2019-05-30T07:35:14.833Z,7.33
2019-05-30T07:37:42.117Z,8.33
2019-05-30T07:40:09.492Z,7.87
2019-05-30T07:42:36.793Z,7.20
2019-05-30T07:45:08.383Z,6.45
2019-05-30T07:47:35.710Z,7.90
2019-05-30T07:50:02.982Z,7.30
2019-05-30T07:52:30.642Z,8.83
2019-05-30T07:54:58.012Z,6.70
2019-05-30T07:57:26.141Z,7.50
2019-05-30T07:59:53.509Z,7.42
2019-05-30T08:02:20.798Z,7.37
2019-05-30T08:04:48.095Z,6.83
2019-05-30T08:07:15.410Z,8.35
2019-05-30T08:09:42.708Z,7.78
2019-05-30T08:12:09.999Z,8.05
2019-05-30T08:14:37.427Z,8.55
2019-05-30T08:17:04.702Z,6.70
2019-05-30T08:19:32.755Z,6.42
2019-05-30T08:22:00.960Z,6.85
2019-05-30T08:24:28.242Z,6.55
2019-05-30T08:26:55.550Z,6.60
2019-05-30T08:29:22.841Z,6.25
2019-05-30T08:31:50.155Z,6.17
2019-05-30T08:34:17.438Z,7.78
2019-05-30T08:36:44.740Z,7.37
2019-05-30T08:39:12.049Z,11.75
2019-05-30T08:41:39.543Z,5.12
2019-05-30T08:44:06.834Z,6.78
2019-05-30T08:46:34.149Z,5.28
2019-05-30T08:49:01.898Z,12.60
2019-05-30T08:51:30.097Z,5.87
2019-05-30T08:53:57.462Z,4.92
2019-05-30T08:56:28.209Z,4.70
2019-05-30T08:58:53.708Z,8.30
2019-05-30T09:01:20.994Z,5.10
2019-05-30T09:03:48.289Z,4.40
2019-05-30T09:06:15.599Z,4.12
2019-05-30T09:08:44.129Z,2.27
2019-05-30T09:11:11.574Z,4.97
2019-05-30T09:13:38.925Z,2.90
2019-05-30T09:16:06.181Z,3.27
2019-05-30T09:18:33.512Z,2.72
2019-05-30T09:21:00.770Z,7.55
2019-05-30T09:23:28.057Z,5.62
2019-05-30T09:25:55.374Z,3.27
2019-05-30T09:28:22.656Z,3.35
2019-05-30T09:30:50.019Z,3.30
2019-05-30T09:33:17.320Z,3.27
2019-05-30T09:35:44.935Z,2.55
2019-05-30T09:38:12.191Z,7.35
2019-05-30T09:40:40.828Z,2.67
2019-05-30T09:43:08.598Z,4.00
2019-05-30T09:45:35.998Z,2.45
2019-05-30T09:48:03.317Z,14.70
2019-05-30T09:50:30.594Z,9.40
2019-05-30T09:52:58.044Z,20.92
2019-05-30T09:55:25.486Z,13.00
2019-05-30T09:57:52.890Z,13.15
2019-05-30T10:00:21.069Z,4.90
2019-05-30T10:02:48.775Z,4.42
2019-05-30T10:05:16.276Z,5.42
2019-05-30T10:07:45.272Z,7.08
2019-05-30T10:10:12.729Z,7.03
2019-05-30T10:12:40.062Z,10.20
2019-05-30T10:15:10.166Z,2.98
2019-05-30T10:17:37.519Z,14.95
2019-05-30T10:20:05.413Z,5.47
2019-05-30T10:22:32.692Z,2.10
2019-05-30T10:25:00.040Z,2.83
2019-05-30T10:27:27.403Z,1.60
2019-05-30T10:29:54.871Z,5.50
2019-05-30T10:32:22.152Z,15.32
2019-05-30T10:34:49.593Z,7.05
2019-05-30T10:37:16.931Z,3.92
2019-05-30T10:39:45.538Z,1.72
2019-05-30T10:42:13.289Z,8.78
2019-05-30T10:44:40.589Z,6.05
2019-05-30T10:47:07.902Z,6.67
2019-05-30T10:49:35.432Z,10.78
2019-05-30T10:52:02.841Z,14.28
2019-05-30T10:54:30.158Z,13.50
2019-05-30T10:56:57.441Z,4.03
2019-05-30T10:59:24.999Z,4.67
2019-05-30T11:01:52.998Z,3.33
2019-05-30T11:04:20.366Z,10.60
2019-05-30T11:07:11.013Z,10.40
2019-05-30T11:09:31.302Z,27.07
2019-05-30T11:11:59.455Z,5.12
2019-05-30T11:14:26.743Z,5.35
2019-05-30T11:16:55.476Z,9.38
2019-05-30T11:19:22.834Z,5.00
2019-05-30T11:21:50.138Z,4.92
2019-05-30T11:24:17.440Z,3.47
2019-05-30T11:26:44.738Z,4.45
2019-05-30T11:29:12.031Z,6.42
2019-05-30T11:31:39.323Z,8.60
2019-05-30T11:34:06.617Z,7.37
2019-05-30T11:36:33.907Z,2.40
2019-05-30T11:39:01.199Z,2.98
2019-05-30T11:41:28.497Z,3.83
2019-05-30T11:43:55.830Z,4.05
2019-05-30T11:46:23.132Z,5.53
2019-05-30T11:48:51.552Z,5.60
2019-05-30T11:51:18.911Z,2.50
2019-05-30T11:53:46.195Z,2.07
2019-05-30T11:56:13.522Z,1.63
2019-05-30T11:58:40.805Z,1.40
2019-05-30T12:01:08.095Z,1.77
2019-05-30T12:03:35.425Z,3.73
2019-05-30T12:06:02.818Z,3.70
2019-05-30T12:08:30.158Z,2.50
2019-05-30T12:10:57.475Z,5.03
2019-05-30T12:13:24.774Z,0.87
2019-05-30T12:15:53.298Z,1.37
2019-05-30T12:18:20.690Z,2.20
2019-05-30T12:20:47.986Z,1.30
2019-05-30T12:23:15.305Z,1.13
2019-05-30T12:25:42.591Z,1.10
2019-05-30T12:28:09.908Z,2.50
2019-05-30T12:30:37.227Z,2.40
2019-05-30T12:33:04.539Z,2.00
2019-05-30T12:35:31.824Z,3.20
2019-05-30T12:38:04.133Z,3.00
2019-05-30T12:40:28.061Z,2.57
2019-05-30T12:42:57.707Z,1.37
2019-05-30T12:45:24.364Z,1.07
2019-05-30T12:47:52.920Z,2.00
2019-05-30T12:50:20.310Z,1.33
2019-05-30T12:52:47.604Z,3.50
2019-05-30T12:55:14.891Z,1.20
2019-05-30T12:57:42.206Z,1.03
2019-05-30T13:00:17.328Z,2.53
2019-05-30T13:02:39.122Z,3.03
2019-05-30T13:05:07.174Z,5.20
2019-05-30T13:07:34.504Z,1.43
2019-05-30T13:10:01.798Z,2.33
2019-05-30T13:12:29.110Z,1.27
2019-05-30T13:14:57.429Z,1.47
2019-05-30T13:17:24.706Z,3.60
2019-05-30T13:19:52.036Z,3.37
2019-05-30T13:22:19.308Z,1.13
2019-05-30T13:24:46.628Z,11.00
2019-05-30T13:27:13.923Z,6.07
2019-05-30T13:29:41.201Z,3.10
2019-05-30T13:32:08.505Z,3.50
2019-05-30T13:34:35.790Z,1.67
2019-05-30T13:37:03.071Z,3.10
2019-05-30T13:39:30.373Z,2.20
2019-05-30T13:41:57.670Z,2.27
2019-05-30T13:44:24.973Z,3.37
2019-05-30T13:46:52.252Z,3.77
2019-05-30T13:49:19.556Z,3.53
2019-05-30T13:51:46.867Z,2.20
2019-05-30T13:54:14.154Z,2.40
2019-05-30T13:56:41.437Z,3.73
2019-05-30T13:59:09.859Z,1.70
2019-05-30T14:01:37.380Z,0.77
2019-05-30T14:04:04.793Z,4.30
2019-05-30T14:06:32.377Z,1.00
2019-05-30T14:09:00.192Z,1.13
2019-05-30T14:11:27.491Z,2.47
2019-05-30T14:13:54.782Z,0.93
2019-05-30T14:16:22.074Z,2.90
2019-05-30T14:18:49.405Z,2.73
2019-05-30T14:21:16.689Z,1.90
2019-05-30T14:23:44.003Z,6.83
2019-05-30T14:26:11.637Z,2.70
2019-05-30T14:28:38.991Z,1.63
2019-05-30T14:31:06.773Z,1.40
2019-05-30T14:33:34.098Z,2.80
2019-05-30T14:36:04.565Z,1.70
2019-05-30T14:38:30.402Z,1.97
2019-05-30T14:40:57.712Z,1.97
2019-05-30T14:43:25.002Z,1.10
2019-05-30T14:45:52.346Z,1.20
2019-05-30T14:48:19.650Z,1.70
2019-05-30T14:50:46.948Z,5.47
2019-05-30T14:53:14.557Z,2.87
2019-05-30T14:55:46.950Z,4.47
2019-05-30T14:58:14.246Z,5.20
2019-05-30T15:00:41.638Z,1.40
2019-05-30T15:03:12.682Z,1.57
2019-05-30T15:05:37.887Z,1.93
2019-05-30T15:08:06.405Z,7.63
2019-05-30T15:10:33.785Z,1.33
2019-05-30T15:13:01.102Z,1.43
2019-05-30T15:15:28.364Z,5.27
2019-05-30T15:17:55.687Z,5.27
2019-05-30T15:20:22.970Z,1.03
2019-05-30T15:22:50.263Z,3.63
2019-05-30T15:25:18.173Z,2.07
2019-05-30T15:27:45.578Z,1.73
2019-05-30T15:30:12.897Z,1.03
2019-05-30T15:32:40.186Z,1.33
2019-05-30T15:35:08.657Z,1.90
2019-05-30T15:37:36.067Z,6.17
2019-05-30T15:40:06.812Z,4.90
2019-05-30T15:42:37.671Z,4.17
2019-05-30T15:45:07.909Z,1.23
2019-05-30T15:47:35.281Z,1.93
2019-05-30T15:50:02.589Z,2.60
2019-05-30T15:52:29.877Z,4.07
2019-05-30T15:54:57.201Z,4.50
2019-05-30T15:57:24.502Z,1.43
2019-05-30T15:59:51.815Z,2.23
2019-05-30T16:02:20.389Z,1.10
2019-05-30T16:04:47.724Z,1.83
2019-05-30T16:07:15.022Z,3.23
2019-05-30T16:09:46.941Z,2.90
2019-05-30T16:12:11.269Z,2.27
2019-05-30T16:14:38.567Z,2.37
2019-05-30T16:17:05.847Z,1.60
2019-05-30T16:19:33.185Z,2.45
2019-05-30T16:22:00.550Z,2.58
2019-05-30T16:24:27.864Z,3.87
2019-05-30T16:26:55.182Z,3.65
2019-05-30T16:29:22.527Z,4.53
2019-05-30T16:31:49.775Z,2.62
2019-05-30T16:34:18.057Z,1.60
2019-05-30T16:36:45.419Z,2.58
2019-05-30T16:39:13.912Z,3.33
2019-05-30T16:41:42.924Z,2.47
2019-05-30T16:44:10.181Z,2.27
2019-05-30T16:46:37.498Z,2.12
2019-05-30T16:49:04.782Z,3.05
2019-05-30T16:51:32.099Z,3.00
2019-05-30T16:53:59.408Z,3.52
2019-05-30T16:56:26.721Z,1.98
2019-05-30T16:58:54.017Z,2.30
2019-05-30T17:01:22.012Z,1.87
2019-05-30T17:03:49.327Z,1.32
2019-05-30T17:06:17.933Z,1.50
2019-05-30T17:08:45.322Z,1.65
2019-05-30T17:11:12.610Z,2.30
2019-05-30T17:13:39.932Z,1.30
2019-05-30T17:16:10.138Z,1.55
2019-05-30T17:18:37.419Z,4.83
2019-05-30T17:21:04.745Z,2.40
2019-05-30T17:23:32.049Z,1.32
2019-05-30T17:25:59.328Z,4.12
2019-05-30T17:28:26.656Z,2.87
2019-05-30T17:30:53.934Z,5.80
2019-05-30T17:33:22.389Z,2.35
2019-05-30T17:35:50.215Z,2.70
2019-05-30T17:38:18.476Z,3.98
2019-05-30T17:40:49.530Z,2.35
2019-05-30T17:43:14.762Z,1.90
2019-05-30T17:45:42.079Z,2.17
2019-05-30T17:48:16.404Z,3.05
2019-05-30T17:50:38.315Z,3.35
2019-05-30T17:53:05.642Z,1.90
2019-05-30T17:55:32.932Z,2.58
2019-05-30T17:58:00.220Z,1.80
2019-05-30T18:00:28.517Z,3.00
2019-05-30T18:02:55.799Z,2.17
2019-05-30T18:05:23.082Z,1.80
2019-05-30T18:07:50.397Z,1.85
2019-05-30T18:10:17.694Z,2.22
2019-05-30T18:12:45.049Z,4.12
2019-05-30T18:15:13.158Z,1.95
2019-05-30T18:17:40.427Z,2.15
2019-05-30T18:20:07.772Z,3.58
2019-05-30T18:22:35.067Z,5.05
2019-05-30T18:25:02.365Z,2.80
2019-05-30T18:27:29.984Z,2.25
2019-05-30T18:29:57.266Z,1.95
2019-05-30T18:32:25.878Z,1.95
2019-05-30T18:34:53.212Z,4.70
2019-05-30T18:37:20.511Z,3.60
2019-05-30T18:39:47.798Z,2.35
2019-05-30T18:42:15.113Z,2.80
2019-05-30T18:44:42.407Z,3.72
2019-05-30T18:47:09.690Z,1.90
2019-05-30T18:49:37.009Z,2.30
2019-05-30T18:52:04.307Z,4.65
2019-05-30T18:54:32.818Z,2.60
2019-05-30T18:57:00.217Z,3.98
2019-05-30T18:59:27.547Z,2.65
2019-05-30T19:01:54.863Z,1.92
2019-05-30T19:04:22.965Z,3.10
2019-05-30T19:06:50.275Z,2.20
2019-05-30T19:09:17.575Z,2.55
2019-05-30T19:11:44.894Z,3.52
2019-05-30T19:14:12.193Z,4.58
2019-05-30T19:16:39.488Z,2.80
2019-05-30T19:19:06.792Z,2.75
2019-05-30T19:21:34.203Z,3.30
2019-05-30T19:24:01.495Z,3.90
2019-05-30T19:26:28.769Z,3.72
2019-05-30T19:28:56.089Z,3.22
2019-05-30T19:31:23.369Z,5.03
2019-05-30T19:33:50.662Z,3.35
2019-05-30T19:36:17.960Z,5.80
2019-05-30T19:38:45.254Z,4.42
2019-05-30T19:41:12.536Z,3.25
2019-05-30T19:43:39.875Z,5.42
2019-05-30T19:46:07.182Z,3.37
2019-05-30T19:48:34.469Z,3.80
2019-05-30T19:51:01.779Z,5.53
2019-05-30T19:53:29.084Z,3.35
2019-05-30T19:55:56.402Z,5.17
2019-05-30T19:58:23.698Z,3.65
2019-05-30T20:00:58.401Z,5.25
2019-05-30T20:03:35.388Z,4.35
2019-05-30T20:05:48.885Z,4.87
2019-05-30T20:08:16.212Z,5.78
2019-05-30T20:10:43.877Z,5.33
2019-05-30T20:13:11.186Z,5.25
2019-05-30T20:15:39.548Z,3.90
2019-05-30T20:18:06.881Z,3.52
2019-05-30T20:20:51.663Z,4.08
2019-05-30T20:23:03.172Z,3.05
2019-05-30T20:25:30.457Z,5.45
2019-05-30T20:27:57.737Z,3.15
2019-05-30T20:30:25.024Z,3.35
2019-05-30T20:32:52.366Z,5.20
2019-05-30T20:35:19.638Z,4.15
2019-05-30T20:37:47.051Z,5.30
2019-05-30T20:40:14.354Z,4.40
2019-05-30T20:42:41.648Z,4.28
2019-05-30T20:45:10.073Z,3.95
2019-05-30T20:47:39.385Z,3.42
2019-05-30T20:50:06.784Z,4.22
2019-05-30T20:52:37.067Z,4.12
2019-05-30T20:55:03.252Z,3.10
2019-05-30T20:57:30.534Z,3.70
2019-05-30T20:59:57.848Z,3.90
2019-05-30T21:02:25.129Z,4.17
2019-05-30T21:04:52.432Z,5.90
2019-05-30T21:07:19.737Z,7.03
2019-05-30T21:09:47.018Z,4.50
2019-05-30T21:12:14.699Z,3.47
2019-05-30T21:14:41.996Z,3.92
2019-05-30T21:17:09.455Z,3.42
2019-05-30T21:19:37.778Z,4.40
2019-05-30T21:22:05.078Z,3.55
2019-05-30T21:24:32.352Z,3.85
2019-05-30T21:26:59.666Z,4.53
2019-05-30T21:29:26.949Z,4.62
2019-05-30T21:31:54.237Z,3.45
2019-05-30T21:34:21.554Z,3.72
2019-05-30T21:36:48.848Z,3.90
2019-05-30T21:39:16.133Z,3.83
2019-05-30T21:41:44.557Z,3.90
2019-05-30T21:44:11.932Z,3.30
2019-05-30T21:46:40.481Z,5.87
2019-05-30T21:49:07.749Z,3.80
2019-05-30T21:51:35.071Z,4.10
2019-05-30T21:54:02.360Z,3.80
2019-05-30T21:56:29.673Z,3.98
2019-05-30T21:58:56.969Z,3.55
2019-05-30T22:01:25.881Z,4.40
2019-05-30T22:03:53.213Z,4.15
2019-05-30T22:06:20.499Z,3.95
2019-05-30T22:08:47.816Z,7.65
2019-05-30T22:11:15.114Z,4.40
2019-05-30T22:13:43.456Z,3.87
2019-05-30T22:16:10.795Z,3.70
2019-05-30T22:18:38.115Z,4.40
2019-05-30T22:21:05.668Z,5.85
2019-05-30T22:23:32.987Z,5.28
2019-05-30T22:26:00.293Z,5.40
2019-05-30T22:28:27.582Z,4.67
2019-05-30T22:30:54.886Z,4.65
2019-05-30T22:33:22.182Z,4.87
2019-05-30T22:35:49.472Z,6.37
2019-05-30T22:38:16.787Z,7.05
2019-05-30T22:40:44.078Z,4.97
2019-05-30T22:43:24.500Z,5.35
2019-05-30T22:45:40.326Z,5.03
2019-05-30T22:48:07.614Z,5.33
2019-05-30T22:50:34.927Z,6.03
2019-05-30T22:53:02.209Z,5.08
2019-05-30T22:55:29.491Z,5.10
2019-05-30T22:57:56.865Z,7.03
2019-05-30T23:00:24.151Z,4.62
2019-05-30T23:02:51.918Z,4.70
2019-05-30T23:05:19.305Z,5.08
2019-05-30T23:07:47.359Z,4.72
2019-05-30T23:10:14.709Z,5.53
2019-05-30T23:12:43.963Z,6.08
2019-05-30T23:15:10.943Z,4.72
2019-05-30T23:17:38.249Z,5.95
2019-05-30T23:20:06.008Z,4.97
2019-05-30T23:22:33.327Z,4.60
2019-05-30T23:25:00.595Z,4.05
2019-05-30T23:27:27.876Z,4.58
2019-05-30T23:29:55.948Z,5.10
2019-05-30T23:32:23.278Z,6.72
2019-05-30T23:34:50.566Z,4.62
2019-05-30T23:37:17.879Z,5.75
2019-05-30T23:39:45.177Z,6.33
2019-05-30T23:42:12.461Z,5.95
2019-05-30T23:44:39.764Z,5.45
2019-05-30T23:47:07.061Z,5.35
2019-05-30T23:49:34.337Z,4.97
2019-05-30T23:52:01.654Z,5.08
2019-05-30T23:54:28.976Z,4.47
2019-05-30T23:56:56.518Z,3.75
2019-05-30T23:59:23.847Z,6.15
